Startpagina
METAR-TAF:

METAR-TAF

Vliegvelden :

Curaçao International Airport

Curaçao, Nederlandse Antillen

breedte: 12-12N, lengte: 068-58W, hoogte: 9 m

Actueel weer

Dit bericht is 1 uur en het 12 minuten geleden gemaakt, om 12:00 UTC
Wind 14 kt uit het oostzuidoosten
Temperatuur 29°C
Vochtigheid 74%
Druk 1014 hPa
Zicht 10 km of meer
Verspreide wolken op 1700 ft

METAR: TNCC 231200Z 11014KT 9999 SCT017 29/24 Q1014 NOSIG

Tijdstip: 09:12 (13:12 UTC)

Verwachting

Dit bericht is 1 uur en het 57 minuten geleden gemaakt, om 11:15 UTC
Verwachting geldig van 23 om 12 UTC tot 24 om 12 UTC
Wind 17 kt uit het oosten
Zicht 10 km of meer
Verspreide wolken op 2000 ft

TAF: TNCC 231115Z 2312/2412 10017KT 9999 SCT020

Waarnemingen en weersverwachtingen van meer dan 4000 vliegvelden (METAR en TAF).

De beschikbare stations zijn de gele en rode punten op de kaart.

Ga met uw muis naar het station om de naam te zien.

Klik dan om waarnemingen en weersverwachtingen te zien.

kaart wijzigen: klik op de groene knoppen met een zwart kruis om in te zoomen, op de groene knop met een streepje om uit te zoomen of op de groene pijlen voor aangrenzende kaarten.


METAR-TAF: